Airfield :
LOGIN :

Register | Disclaimer

   EN    FR    IT 

 










Legend :    VFR   Marginal VFR   IFR   Intensive IFR   Very Intensive IFR
Visi :
Ceiling :
>= 8 km
>= 3000ft
5 to 8 km
1000 to 3000 ft
1500m to 5 km
500 to 1000 ft
800 to 1500m
200 to 500 ft
< 800m
< 200 ft
Symbols :   Thunderstorms  Fog  Heavy snow  Heavy precipitations  Wind > 20 kt
SIGMETs :     Misc.  Thunderstorms  Icing  Turbulence  Mountain Waves  Volcanic Ashes







- Airport Elevation : -11 ft
- IATA code : AMS


EHAM - Amsterdam Schiphol

CURRENT METAR :
  • 191625Z 30009KT 280V340 9999 FEW025 15/10 Q1019 NOSIG

EXPIRED METARs :
  • 191555Z 31009KT 290V350 9999 FEW025 16/10 Q1019 NOSIG
  • 191525Z 30011KT 270V330 9999 FEW025 16/10 Q1019 NOSIG
  • 191455Z 31009KT 270V330 9999 FEW025 17/11 Q1018 NOSIG
  • 191425Z 33008KT 290V010 9999 FEW025TCU 17/10 Q1018 NOSIG
  • 191355Z 01004KT 320V080 9999 VCSH FEW025TCU 16/11 Q1018 NOSIG

TAF TAF EHAM
Valid from the 19 at 12:00 until the 20 at 18:00 UTC


191044Z 1912/2018 33008KT 9999 FEW030
TEMPO 1912/1916 6000 SHRA FEW025CB BKN025
BECMG 1918/1921 27005KT
PROB30
TEMPO 1921/2006 7000 -SHRA FEW025TCU BKN030
BECMG 2008/2011 24010KT
No reported NOTAMs for that airfield.



MET'MAP, your aeronautical weather chart ! - Copyright ORBIFLY December 2007 - Disclaimer

ORBIFLY MET'MAP TEAM :

Programming & Development : Alexandra Zaïnal
Concept & Development : Baudouin d'Aumeries
Co-Development & Prog : Marc-Olivier Méhu
Technical & hardware support : Manuel Goepfert

Contact : metmap@orbifly.com




SOURCES & CREDITS :

   NOAA